Time;durP1;ratioP1;P1;durP2;ratioP2;P2;SDS_P1;SDS_P2;PMS_P1;PMS_P2;Temp;Humidity;BMP_temperature;BMP_pressure;BME280_temperature;BME280_humidity;BME280_pressure;Samples;Min_cycle;Max_cycle;Signal;HPM_P1;HPM_P2
2021/01/08 00:00:19;;;;;;;3.37;2.50;;;;;;;5.03;84.11;99652.39;1739503;82;21323;-76
2021/01/08 00:03:25;;;;;;;3.72;2.15;;;;;;;4.97;84.26;99665.23;1739513;82;21323;-76
2021/01/08 00:06:31;;;;;;;2.30;1.90;;;;;;;4.91;84.35;99678.91;1738705;82;21633;-76
2021/01/08 00:09:38;;;;;;;3.87;2.08;;;;;;;4.88;84.52;99690.89;1738451;82;21237;-75
2021/01/08 00:12:43;;;;;;;2.55;1.90;;;;;;;4.90;84.59;99677.71;1738072;82;21181;-76
2021/01/08 00:15:49;;;;;;;3.72;2.17;;;;;;;4.91;84.53;99673.99;1739384;82;21311;-76
2021/01/08 00:18:55;;;;;;;3.05;2.20;;;;;;;4.89;84.43;99678.19;1738241;82;21359;-76
2021/01/08 00:22:01;;;;;;;2.60;2.08;;;;;;;4.87;84.52;99678.86;1739772;82;21320;-76
2021/01/08 00:25:06;;;;;;;4.33;2.25;;;;;;;4.84;84.64;99685.94;1739609;82;21244;-76
2021/01/08 00:28:13;;;;;;;2.40;2.20;;;;;;;4.82;84.79;99689.31;1739729;82;21316;-76
2021/01/08 00:31:19;;;;;;;4.70;2.20;;;;;;;4.80;84.78;99704.89;1739786;82;22302;-76
2021/01/08 00:34:25;;;;;;;4.28;1.85;;;;;;;4.79;84.67;99709.43;1739710;81;21879;-76
2021/01/08 00:37:34;;;;;;;1.90;1.77;;;;;;;4.78;84.56;99717.22;1738485;82;21308;-76
2021/01/08 00:40:40;;;;;;;1.98;1.60;;;;;;;4.78;84.26;99717.22;1739809;82;21304;-76
2021/01/08 00:43:46;;;;;;;3.33;1.60;;;;;;;4.76;83.42;99719.24;1739632;82;21303;-76
2021/01/08 00:46:55;;;;;;;3.55;2.30;;;;;;;4.73;82.22;99737.66;1738040;82;21273;-76
2021/01/08 00:50:00;;;;;;;1.72;1.50;;;;;;;4.68;81.24;99737.27;1734263;83;21300;-76
2021/01/08 00:53:07;;;;;;;2.75;1.10;;;;;;;4.63;80.42;99745.84;1733942;83;21198;-75
2021/01/08 00:56:15;;;;;;;1.37;1.27;;;;;;;4.59;79.83;99754.77;1732582;83;21295;-76
2021/01/08 00:59:22;;;;;;;2.08;1.20;;;;;;;4.54;79.61;99760.30;1712540;83;21363;-76
2021/01/08 01:02:28;;;;;;;3.15;1.40;;;;;;;4.50;80.22;99765.66;1733532;83;21351;-77
2021/01/08 01:05:34;;;;;;;1.20;1.10;;;;;;;4.49;80.47;99768.88;1734028;83;21891;-77
2021/01/08 01:08:40;;;;;;;1.98;1.17;;;;;;;4.48;80.63;99764.97;1733884;83;21241;-76
2021/01/08 01:11:47;;;;;;;1.50;1.20;;;;;;;4.50;80.85;99771.92;1733969;83;21308;-77
2021/01/08 01:14:52;;;;;;;1.25;1.15;;;;;;;4.52;81.31;99768.58;1733869;83;21189;-75
2021/01/08 01:17:58;;;;;;;1.25;1.15;;;;;;;4.56;81.69;99770.46;1732594;83;21843;-76
2021/01/08 01:21:04;;;;;;;1.57;1.30;;;;;;;4.60;82.04;99767.80;1734180;83;21328;-76
2021/01/08 01:24:09;;;;;;;1.20;1.05;;;;;;;4.61;82.27;99764.97;1734104;83;21729;-76
2021/01/08 01:27:14;;;;;;;2.08;1.47;;;;;;;4.65;82.37;99774.97;1733255;83;21237;-76
2021/01/08 01:30:20;;;;;;;1.10;1.00;;;;;;;4.65;82.18;99770.06;1733973;82;21229;-76
2021/01/08 01:33:26;;;;;;;1.35;1.25;;;;;;;4.64;81.58;99769.21;1733477;83;21343;-76
2021/01/08 01:36:31;;;;;;;2.92;1.17;;;;;;;4.56;79.76;99773.17;1733973;83;21312;-76
2021/01/08 01:39:37;;;;;;;1.65;1.20;;;;;;;4.48;79.32;99775.30;1734087;83;21335;-76
2021/01/08 01:42:43;;;;;;;1.35;1.25;;;;;;;4.45;79.36;99778.80;1734080;83;21304;-77
2021/01/08 01:45:49;;;;;;;1.80;1.07;;;;;;;4.40;79.55;99773.83;1734066;82;21311;-77
2021/01/08 01:48:56;;;;;;;1.40;1.30;;;;;;;4.40;80.01;99766.22;1734644;82;21415;-76
2021/01/08 01:52:03;;;;;;;2.65;1.20;;;;;;;4.39;80.38;99775.34;1739809;82;21886;-76
2021/01/08 01:55:08;;;;;;;1.12;1.02;;;;;;;4.32;80.29;99770.51;1739791;82;21304;-76
2021/01/08 01:58:15;;;;;;;1.40;1.30;;;;;;;4.26;80.47;99781.94;1739047;82;21320;-76
2021/01/08 02:01:21;;;;;;;3.22;1.37;;;;;;;4.22;80.67;99787.30;1739841;82;21233;-76
2021/01/08 02:04:27;;;;;;;1.55;1.35;;;;;;;4.22;80.97;99803.55;1738746;82;21877;-76
2021/01/08 02:07:33;;;;;;;1.77;1.32;;;;;;;4.21;81.21;99811.31;1739323;82;21339;-76
2021/01/08 02:10:50;;;;;;;1.90;1.50;;;;;;;4.25;81.37;99817.30;1719310;82;21311;-77
2021/01/08 02:14:10;;;;;;;1.60;1.40;;;;;;;4.25;81.30;99816.80;1739923;82;21777;-75
2021/01/08 02:17:16;;;;;;;1.72;1.45;;;;;;;4.26;81.37;99828.47;1739645;82;21821;-76
2021/01/08 02:20:22;;;;;;;4.08;1.67;;;;;;;4.30;81.55;99838.86;1738385;82;21871;-76
2021/01/08 02:23:51;;;;;;;1.85;1.60;;;;;;;4.32;81.70;99835.48;1719249;82;21304;-77
2021/01/08 02:26:56;;;;;;;2.75;1.55;;;;;;;4.33;81.57;99831.80;1739725;82;21170;-76
2021/01/08 02:30:02;;;;;;;1.70;1.30;;;;;;;4.32;81.53;99835.48;1739803;82;21867;-77
2021/01/08 02:33:08;;;;;;;2.00;1.55;;;;;;;4.32;81.59;99835.99;1739788;82;21308;-76
2021/01/08 02:36:14;;;;;;;2.75;2.00;;;;;;;4.32;81.79;99840.91;1738363;81;21323;-77
2021/01/08 02:39:20;;;;;;;2.25;1.90;;;;;;;4.35;82.04;99851.45;1739966;82;21901;-77
2021/01/08 02:42:26;;;;;;;3.30;1.95;;;;;;;4.36;82.14;99862.63;1739787;82;21835;-77
2021/01/08 02:45:33;;;;;;;3.08;2.50;;;;;;;4.32;82.06;99863.92;1739752;82;21328;-77
2021/01/08 02:48:39;;;;;;;2.98;2.55;;;;;;;4.26;82.37;99862.31;1738751;82;21343;-76
2021/01/08 02:51:44;;;;;;;7.33;3.37;;;;;;;4.22;82.75;99846.86;1739854;82;21169;-76
2021/01/08 02:54:50;;;;;;;6.45;3.77;;;;;;;4.10;83.02;99850.25;1718840;82;21506;-76
2021/01/08 02:57:55;;;;;;;7.65;3.22;;;;;;;4.07;83.60;99855.09;1739464;82;21193;-75
2021/01/08 03:01:01;;;;;;;5.85;3.62;;;;;;;4.04;83.82;99849.45;1739753;82;21308;-76
2021/01/08 03:04:07;;;;;;;4.80;3.20;;;;;;;4.00;83.82;99844.02;1739736;82;21522;-76
2021/01/08 03:07:13;;;;;;;5.05;3.20;;;;;;;3.95;84.00;99844.06;1738374;82;21353;-75
2021/01/08 03:10:20;;;;;;;4.80;3.50;;;;;;;3.91;84.23;99853.50;1739755;82;21316;-76
2021/01/08 03:13:25;;;;;;;6.10;3.50;;;;;;;3.89;84.34;99846.02;1739821;82;21978;-75
2021/01/08 03:16:30;;;;;;;4.30;3.20;;;;;;;3.83;84.42;99842.89;1738466;82;21205;-75
2021/01/08 03:19:36;;;;;;;2.90;2.60;;;;;;;3.78;84.48;99836.21;1738525;82;21374;-76
2021/01/08 03:22:42;;;;;;;3.80;3.08;;;;;;;3.69;84.38;99832.52;1739739;82;21308;-76
2021/01/08 03:25:48;;;;;;;4.15;2.75;;;;;;;3.61;84.41;99835.57;1739786;82;22098;-76
2021/01/08 03:28:53;;;;;;;3.10;2.80;;;;;;;3.53;84.43;99845.77;1739083;82;21221;-76
2021/01/08 03:31:58;;;;;;;4.20;2.77;;;;;;;3.45;84.59;99846.47;1738475;82;22537;-76
2021/01/08 03:35:04;;;;;;;4.20;3.55;;;;;;;3.41;84.84;99840.14;1738689;81;21359;-76
2021/01/08 03:38:10;;;;;;;5.40;3.35;;;;;;;3.30;84.90;99849.25;1739693;82;21880;-76
2021/01/08 03:41:16;;;;;;;3.75;3.20;;;;;;;3.19;84.78;99852.91;1739741;82;21173;-77
2021/01/08 03:44:21;;;;;;;3.80;3.15;;;;;;;3.05;84.82;99855.52;1739795;82;21182;-76
2021/01/08 03:47:27;;;;;;;4.00;3.17;;;;;;;2.91;85.11;99847.81;1739748;82;21740;-76
2021/01/08 03:50:33;;;;;;;4.12;3.42;;;;;;;2.74;85.43;99838.55;1739266;82;21330;-75
2021/01/08 03:53:39;;;;;;;4.08;3.50;;;;;;;2.56;86.04;99831.59;1739739;82;21749;-76
2021/01/08 03:56:44;;;;;;;4.92;4.30;;;;;;;2.44;86.70;99837.22;1739744;82;21186;-76
2021/01/08 03:59:51;;;;;;;4.10;3.70;;;;;;;2.31;87.28;99849.61;1738741;82;21245;-76
2021/01/08 04:02:57;;;;;;;4.87;4.17;;;;;;;2.18;87.84;99857.06;1739603;82;21304;-75
2021/01/08 04:06:04;;;;;;;5.50;4.33;;;;;;;2.05;88.33;99869.41;1738833;82;21371;-76
2021/01/08 04:09:09;;;;;;;5.08;4.08;;;;;;;1.94;88.91;99873.53;1738229;82;21229;-76
2021/01/08 04:12:14;;;;;;;4.80;3.87;;;;;;;1.82;89.57;99876.77;1739740;82;21308;-75
2021/01/08 04:15:20;;;;;;;4.42;3.60;;;;;;;1.71;90.24;99881.74;1739729;82;21791;-76
2021/01/08 04:18:25;;;;;;;4.97;4.42;;;;;;;1.62;90.95;99893.30;1739749;82;21188;-76
2021/01/08 04:21:31;;;;;;;4.47;3.83;;;;;;;1.55;91.66;99897.48;1738914;82;21323;-75
2021/01/08 04:24:38;;;;;;;6.40;5.05;;;;;;;1.51;92.29;99896.06;1739724;82;21359;-76
2021/01/08 04:27:44;;;;;;;5.25;4.53;;;;;;;1.45;92.77;99900.59;1739825;82;21320;-75
2021/01/08 04:30:50;;;;;;;9.35;6.00;;;;;;;1.39;93.24;99913.23;1738282;82;21241;-76
2021/01/08 04:33:56;;;;;;;6.25;4.67;;;;;;;1.33;93.56;99916.45;1739697;82;21189;-75
2021/01/08 04:37:01;;;;;;;5.45;4.35;;;;;;;1.26;93.84;99931.76;1738785;82;21344;-76
2021/01/08 04:40:07;;;;;;;9.33;6.08;;;;;;;1.21;94.08;99929.94;1738937;82;21189;-76
2021/01/08 04:43:13;;;;;;;8.43;4.83;;;;;;;1.15;94.34;99942.57;1739681;82;21840;-75
2021/01/08 04:46:33;;;;;;;6.00;4.67;;;;;;;1.11;94.57;99944.30;1739719;82;21320;-76
2021/01/08 04:49:40;;;;;;;4.97;4.25;;;;;;;1.04;94.70;99937.70;1739190;82;21379;-76
2021/01/08 04:52:46;;;;;;;6.53;4.87;;;;;;;0.98;94.89;99943.93;1717483;82;21744;-76
2021/01/08 04:55:52;;;;;;;7.30;5.80;;;;;;;0.93;95.04;99965.48;1739997;82;21193;-76
2021/01/08 04:58:59;;;;;;;7.83;6.05;;;;;;;0.83;95.17;99972.09;1739721;82;21316;-76
2021/01/08 05:02:05;;;;;;;11.68;7.28;;;;;;;0.73;95.36;99978.70;1739529;82;21308;-76
2021/01/08 05:05:10;;;;;;;9.13;6.65;;;;;;;0.66;95.66;99985.57;1740066;82;21360;-76
2021/01/08 05:08:16;;;;;;;10.13;6.20;;;;;;;0.60;95.94;99990.07;1738345;82;21394;-76
2021/01/08 05:11:33;;;;;;;9.90;6.83;;;;;;;0.51;96.22;99984.91;1738433;82;21371;-76
2021/01/08 05:14:39;;;;;;;10.38;6.60;;;;;;;0.45;96.46;99992.63;1740253;82;21236;-75
2021/01/08 05:17:44;;;;;;;7.65;6.37;;;;;;;0.39;96.79;99985.04;1675029;82;21295;-76
2021/01/08 05:20:51;;;;;;;11.43;7.03;;;;;;;0.34;97.07;99986.73;1738868;82;21319;-76
2021/01/08 05:23:57;;;;;;;8.23;6.00;;;;;;;0.31;97.38;99994.19;1739810;82;21744;-76
2021/01/08 05:27:02;;;;;;;7.58;6.55;;;;;;;0.27;97.66;99992.21;1739768;82;21351;-76
2021/01/08 05:30:27;;;;;;;11.15;7.35;;;;;;;0.21;97.84;99992.20;1739460;82;21209;-75
2021/01/08 05:33:30;;;;;;;7.67;5.92;;;;;;;0.19;98.08;100006.77;1739708;82;21327;-75
2021/01/08 05:36:36;;;;;;;14.43;8.05;;;;;;;0.15;98.33;100010.17;1739786;82;21356;-75
2021/01/08 05:39:41;;;;;;;8.10;6.78;;;;;;;0.15;98.56;100018.23;1739800;82;21355;-76
2021/01/08 05:43:04;;;;;;;7.70;6.20;;;;;;;0.13;98.74;100012.09;1718847;82;21307;-76
2021/01/08 05:46:19;;;;;;;8.28;6.67;;;;;;;0.12;98.85;100021.15;1739811;82;21756;-76
2021/01/08 05:49:25;;;;;;;10.05;6.67;;;;;;;0.12;98.96;100029.22;1740206;82;21308;-75
2021/01/08 05:52:32;;;;;;;9.45;7.25;;;;;;;0.13;99.04;100039.48;1739386;82;21209;-76
2021/01/08 05:55:48;;;;;;;10.72;6.85;;;;;;;0.14;99.13;100042.53;1740075;82;21205;-76
2021/01/08 05:58:54;;;;;;;10.08;6.90;;;;;;;0.16;99.19;100060.29;1719049;82;21300;-76
2021/01/08 06:01:59;;;;;;;14.95;8.53;;;;;;;0.20;99.26;100059.58;1738476;82;21307;-76
2021/01/08 06:05:06;;;;;;;9.95;7.20;;;;;;;0.23;99.26;100063.36;1739794;82;21319;-75
2021/01/08 06:08:12;;;;;;;9.00;7.30;;;;;;;0.23;99.22;100061.52;1739223;82;21404;-76
2021/01/08 06:11:37;;;;;;;10.65;7.85;;;;;;;0.23;99.19;100073.63;1739020;82;21383;-76
2021/01/08 06:14:43;;;;;;;9.08;6.70;;;;;;;0.28;99.22;100069.73;1739742;82;21883;-76
2021/01/08 06:17:51;;;;;;;13.98;6.70;;;;;;;0.35;99.29;100084.45;1738303;82;21303;-76
2021/01/08 06:20:58;;;;;;;11.48;7.40;;;;;;;0.42;99.34;100086.54;1719617;82;21316;-76
2021/01/08 06:24:03;;;;;;;9.43;6.92;;;;;;;0.50;99.36;100081.93;1738884;82;21395;-76
2021/01/08 06:27:10;;;;;;;12.03;7.70;;;;;;;0.58;99.38;100092.97;1740349;82;21851;-76
2021/01/08 06:30:16;;;;;;;8.70;6.72;;;;;;;0.65;99.36;100090.16;1739716;82;21726;-76
2021/01/08 06:33:22;;;;;;;10.40;7.17;;;;;;;0.73;99.27;100094.97;1740342;82;21296;-76
2021/01/08 06:36:36;;;;;;;7.92;6.03;;;;;;;0.82;99.17;100096.09;1739644;82;21216;-76
2021/01/08 06:39:46;;;;;;;9.68;7.25;;;;;;;0.91;99.06;100094.03;1739529;82;21323;-76
2021/01/08 06:42:54;;;;;;;;;;;;;;;0.99;98.86;100083.52;1742782;82;21296;-77
2021/01/08 06:46:00;;;;;;;11.78;6.08;;;;;;;1.04;98.54;100092.09;1739830;82;20750;-76
2021/01/08 06:49:17;;;;;;;12.15;7.60;;;;;;;1.10;98.28;100090.25;1739938;82;21359;-76
2021/01/08 06:52:23;;;;;;;11.53;7.83;;;;;;;1.14;97.94;100086.34;1740824;82;21304;-76
2021/01/08 06:55:30;;;;;;;10.88;8.15;;;;;;;1.22;97.63;100089.75;1734104;82;21347;-76
2021/01/08 06:58:36;;;;;;;9.60;7.25;;;;;;;1.32;97.37;100089.88;1734029;83;21192;-76
2021/01/08 07:02:00;;;;;;;10.78;8.10;;;;;;;1.40;97.14;100084.24;1732684;83;21293;-75
2021/01/08 07:05:05;;;;;;;11.40;8.30;;;;;;;1.48;96.83;100083.14;1733978;83;21244;-76
2021/01/08 07:08:10;;;;;;;9.38;6.30;;;;;;;1.59;96.58;100097.09;1733979;83;21265;-76
2021/01/08 07:11:32;;;;;;;10.72;7.58;;;;;;;1.68;96.25;100100.39;1711879;83;21265;-76
2021/01/08 07:14:37;;;;;;;9.85;6.78;;;;;;;1.71;95.74;100092.06;1734029;83;21308;-75
2021/01/08 07:17:42;;;;;;;10.23;8.15;;;;;;;1.74;95.23;100107.12;1733972;83;21334;-75
2021/01/08 07:21:03;;;;;;;10.78;7.12;;;;;;;1.71;94.76;100112.29;1711964;83;21327;-75
2021/01/08 07:24:11;;;;;;;9.48;7.28;;;;;;;1.71;94.46;100116.33;1711817;83;21897;-76
2021/01/08 07:27:29;;;;;;;13.10;7.97;;;;;;;1.76;94.32;100122.70;1733985;82;21312;-76
2021/01/08 07:30:35;;;;;;;13.22;7.15;;;;;;;1.76;94.07;100127.60;1733974;83;21185;-76
2021/01/08 07:33:41;;;;;;;10.75;7.67;;;;;;;1.73;93.62;100134.58;1733985;83;21308;-75
2021/01/08 07:36:47;;;;;;;10.75;7.35;;;;;;;1.67;93.25;100138.28;1732587;83;21304;-76
2021/01/08 07:39:53;;;;;;;9.90;7.40;;;;;;;1.64;93.18;100143.91;1733236;83;21594;-76
2021/01/08 07:43:11;;;;;;;9.85;6.70;;;;;;;1.64;93.26;100140.71;1732684;83;21850;-76
2021/01/08 07:46:17;;;;;;;9.98;6.75;;;;;;;1.63;93.27;100136.31;1734286;83;21296;-76
2021/01/08 07:49:27;;;;;;;10.43;6.15;;;;;;;1.63;93.26;100134.96;1732684;83;21379;-76
2021/01/08 07:52:49;;;;;;;9.85;7.12;;;;;;;1.65;93.21;100145.16;1711848;83;21399;-76
2021/01/08 07:55:56;;;;;;;11.12;7.17;;;;;;;1.69;93.29;100143.89;1734154;82;21237;-76
2021/01/08 07:59:11;;;;;;;15.40;8.15;;;;;;;1.76;93.38;100146.48;1718527;82;21343;-76
2021/01/08 08:02:16;;;;;;;7.90;6.30;;;;;;;1.82;93.42;100140.22;1739944;82;21201;-76
2021/01/08 08:05:22;;;;;;;11.33;7.12;;;;;;;1.88;93.44;100139.70;1739317;82;21308;-76
2021/01/08 08:08:28;;;;;;;11.43;6.53;;;;;;;1.92;93.22;100141.18;1740231;82;21890;-76
2021/01/08 08:11:41;;;;;;;11.00;6.97;;;;;;;1.96;93.04;100134.55;1738076;82;21840;-76
2021/01/08 08:14:46;;;;;;;7.58;6.05;;;;;;;2.02;92.92;100125.95;1740783;82;21915;-76
2021/01/08 08:17:52;;;;;;;8.95;6.85;;;;;;;2.08;92.80;100125.96;1740246;82;21316;-76
2021/01/08 08:21:15;;;;;;;13.55;7.58;;;;;;;2.11;92.41;100127.89;1738196;82;21193;-76
2021/01/08 08:24:21;;;;;;;10.93;6.83;;;;;;;2.14;92.02;100123.59;1739670;82;21308;-75
2021/01/08 08:27:27;;;;;;;10.00;6.33;;;;;;;2.17;91.62;100115.76;1739593;82;21308;-76
2021/01/08 08:30:35;;;;;;;10.40;7.30;;;;;;;2.20;91.41;100118.18;1738407;82;21335;-75
2021/01/08 08:33:39;;;;;;;9.98;7.33;;;;;;;2.23;91.06;100121.98;1738686;82;21331;-75
2021/01/08 08:36:45;;;;;;;8.48;6.03;;;;;;;2.25;90.85;100117.30;1739977;82;21304;-76
2021/01/08 08:39:51;;;;;;;12.82;7.12;;;;;;;2.29;90.69;100126.37;1739732;82;21225;-76
2021/01/08 08:43:02;;;;;;;7.05;5.58;;;;;;;2.30;90.35;100130.77;1739328;82;21560;-76
2021/01/08 08:46:08;;;;;;;10.72;7.60;;;;;;;2.33;90.19;100132.37;1739912;82;21351;-76
2021/01/08 08:49:15;;;;;;;10.70;6.58;;;;;;;2.38;90.00;100131.98;1738375;82;21348;-76
2021/01/08 08:52:20;;;;;;;10.08;7.28;;;;;;;2.42;89.83;100136.16;1718876;82;21181;-76
2021/01/08 08:55:39;;;;;;;8.48;6.72;;;;;;;2.45;89.62;100131.86;1739401;82;21217;-76
2021/01/08 08:58:50;;;;;;;8.85;6.55;;;;;;;2.47;89.34;100135.27;1739851;82;21304;-76
2021/01/08 09:01:56;;;;;;;7.20;5.50;;;;;;;2.49;89.31;100134.63;1739699;82;21296;-76
2021/01/08 09:05:06;;;;;;;7.33;5.72;;;;;;;2.52;89.38;100128.49;1740006;82;21236;-76
2021/01/08 09:08:24;;;;;;;7.05;5.42;;;;;;;2.54;89.17;100118.91;1739893;82;21319;-76
2021/01/08 09:11:37;;;;;;;8.18;6.53;;;;;;;2.54;89.01;100123.84;1738994;82;21328;-76
2021/01/08 09:14:42;;;;;;;8.15;6.40;;;;;;;2.57;88.71;100122.70;1738358;82;22526;-76
2021/01/08 09:17:50;;;;;;;8.55;7.10;;;;;;;2.61;88.61;100121.46;1738072;82;21319;-75
2021/01/08 09:21:22;;;;;;;9.65;6.10;;;;;;;2.66;88.66;100116.52;1738158;82;21209;-76
2021/01/08 09:24:38;;;;;;;8.65;6.08;;;;;;;2.70;88.65;100111.23;1718809;82;21379;-76
2021/01/08 09:27:46;;;;;;;8.33;6.10;;;;;;;2.73;88.33;100110.98;1738105;82;21359;-75
2021/01/08 09:30:58;;;;;;;10.08;7.28;;;;;;;2.72;87.91;100105.69;1739632;82;21308;-75
2021/01/08 09:34:07;;;;;;;8.65;6.58;;;;;;;2.71;87.56;100104.83;1738749;81;21228;-76
2021/01/08 09:37:24;;;;;;;8.58;6.50;;;;;;;2.73;87.44;100104.23;1739478;82;21739;-76
2021/01/08 09:40:31;;;;;;;6.97;5.58;;;;;;;2.74;87.32;100103.23;1738097;82;21295;-75
2021/01/08 09:43:37;;;;;;;8.05;6.65;;;;;;;2.73;87.31;100102.88;1739101;82;21331;-76
2021/01/08 09:47:07;;;;;;;13.03;8.05;;;;;;;2.74;87.08;100109.98;1739689;82;21307;-76
2021/01/08 09:50:12;;;;;;;10.03;7.17;;;;;;;2.75;86.86;100113.53;1739749;82;21324;-75
2021/01/08 09:53:20;;;;;;;10.13;7.62;;;;;;;2.76;86.66;100110.70;1739695;82;21359;-76
2021/01/08 09:56:27;;;;;;;10.95;7.65;;;;;;;2.78;86.58;100100.63;1739528;82;22660;-75
2021/01/08 09:59:33;;;;;;;9.85;7.42;;;;;;;2.82;86.54;100106.61;1732347;83;21327;-76
2021/01/08 10:02:47;;;;;;;9.43;7.53;;;;;;;2.84;86.48;100107.34;1734109;83;21181;-76
2021/01/08 10:05:52;;;;;;;12.75;8.35;;;;;;;2.88;86.42;100102.55;1734063;82;21254;-76
2021/01/08 10:09:00;;;;;;;10.75;7.62;;;;;;;2.90;86.33;100094.66;1734012;83;21848;-76
2021/01/08 10:12:07;;;;;;;10.18;7.37;;;;;;;2.94;86.34;100100.16;1733446;83;21339;-76
2021/01/08 10:15:15;;;;;;;13.25;8.78;;;;;;;2.97;86.36;100093.15;1733010;83;21404;-76
2021/01/08 10:18:36;;;;;;;11.80;8.23;;;;;;;3.00;86.40;100094.21;1734320;83;21324;-77
2021/01/08 10:21:42;;;;;;;;;;;;;;;3.03;86.39;100097.16;1737281;83;21206;-76
2021/01/08 10:24:47;;;;;;;11.22;8.50;;;;;;;3.02;86.09;100093.61;1733265;83;20273;-77
2021/01/08 10:27:53;;;;;;;12.98;9.15;;;;;;;2.99;85.82;100094.36;1733345;83;21320;-77
2021/01/08 10:31:01;;;;;;;13.58;9.20;;;;;;;2.96;85.75;100097.31;1734017;83;21312;-77
2021/01/08 10:34:06;;;;;;;11.85;8.75;;;;;;;2.93;85.59;100097.10;1733671;81;21764;-77
2021/01/08 10:37:12;;;;;;;10.40;7.55;;;;;;;2.91;85.69;100092.30;1734070;82;22592;-77
2021/01/08 10:40:19;;;;;;;10.63;8.45;;;;;;;2.92;85.83;100093.19;1733993;82;21732;-77
2021/01/08 10:43:25;;;;;;;13.25;9.28;;;;;;;2.91;85.87;100087.40;1732889;83;21886;-77
2021/01/08 10:46:31;;;;;;;12.80;9.58;;;;;;;2.89;85.61;100087.55;1733083;83;21835;-77
2021/01/08 10:49:37;;;;;;;13.68;8.70;;;;;;;2.86;85.39;100077.48;1734654;83;21344;-76
2021/01/08 10:52:43;;;;;;;12.00;7.92;;;;;;;2.83;85.26;100078.63;1734061;83;21380;-77
2021/01/08 10:55:55;;;;;;;14.60;9.35;;;;;;;2.78;85.30;100081.73;1733643;83;21340;-77
2021/01/08 10:59:01;;;;;;;14.25;10.50;;;;;;;2.75;85.33;100077.08;1734507;82;21879;-77
2021/01/08 11:02:06;;;;;;;13.08;10.13;;;;;;;2.72;85.51;100075.48;1739807;82;21911;-77
2021/01/08 11:05:13;;;;;;;13.13;9.38;;;;;;;2.72;85.58;100070.58;1739166;82;21182;-77
2021/01/08 11:08:18;;;;;;;12.00;9.28;;;;;;;2.71;85.65;100081.88;1740061;82;21922;-77
2021/01/08 11:11:24;;;;;;;11.80;9.03;;;;;;;2.67;85.83;100076.87;1739740;82;21288;-77
2021/01/08 11:14:31;;;;;;;15.72;10.38;;;;;;;2.65;86.02;100078.36;1738278;82;21324;-77
2021/01/08 11:17:37;;;;;;;17.95;10.18;;;;;;;2.61;86.24;100080.95;1739837;82;21368;-77
2021/01/08 11:20:42;;;;;;;15.18;11.43;;;;;;;2.63;86.48;100081.67;1739864;82;21304;-76
2021/01/08 11:23:47;;;;;;;16.90;11.08;;;;;;;2.68;86.67;100087.56;1739752;82;21902;-76
2021/01/08 11:26:53;;;;;;;14.03;10.20;;;;;;;2.75;86.82;100090.08;1739761;82;21351;-77
2021/01/08 11:29:58;;;;;;;14.75;10.45;;;;;;;2.85;86.77;100093.34;1739723;82;21720;-77
2021/01/08 11:33:04;;;;;;;14.05;10.25;;;;;;;2.91;86.54;100090.95;1738309;82;21307;-77
2021/01/08 11:36:10;;;;;;;17.00;10.80;;;;;;;3.01;86.37;100078.39;1738289;81;21344;-77
2021/01/08 11:39:16;;;;;;;16.37;11.22;;;;;;;3.09;85.87;100079.05;1739878;82;21244;-76
2021/01/08 11:42:23;;;;;;;16.70;12.37;;;;;;;3.14;85.47;100072.74;1739805;82;21304;-76
2021/01/08 11:45:29;;;;;;;13.80;9.83;;;;;;;3.18;84.94;100070.14;1739252;82;21295;-75
2021/01/08 11:48:34;;;;;;;13.50;10.65;;;;;;;3.23;84.57;100062.97;1739833;82;21303;-76
2021/01/08 11:51:40;;;;;;;14.70;9.98;;;;;;;3.24;84.02;100049.81;1739785;82;21308;-76
2021/01/08 11:54:45;;;;;;;17.27;9.95;;;;;;;3.26;83.94;100047.34;1739613;82;21300;-76
2021/01/08 11:57:51;;;;;;;17.32;11.63;;;;;;;3.25;83.67;100047.00;1739685;82;21312;-76
2021/01/08 12:00:57;;;;;;;18.82;12.45;;;;;;;3.22;83.45;100047.25;1738155;82;21640;-77
2021/01/08 12:04:03;;;;;;;19.20;11.93;;;;;;;3.22;83.30;100045.91;1739735;82;21319;-77
2021/01/08 12:07:10;;;;;;;18.37;12.15;;;;;;;3.23;83.26;100048.95;1740188;82;21926;-76
2021/01/08 12:10:17;;;;;;;20.12;11.63;;;;;;;3.23;83.30;100046.26;1740041;82;21741;-76
2021/01/08 12:13:22;;;;;;;17.87;12.53;;;;;;;3.24;83.51;100045.26;1719468;82;21824;-77
2021/01/08 12:16:36;;;;;;;17.45;12.75;;;;;;;3.30;83.62;100040.68;1738830;82;21299;-76
2021/01/08 12:19:42;;;;;;;18.57;12.98;;;;;;;3.37;83.42;100046.89;1740717;82;21272;-76
2021/01/08 12:22:48;;;;;;;17.17;12.20;;;;;;;3.40;83.26;100047.97;1739754;82;21910;-76
2021/01/08 12:25:55;;;;;;;22.02;12.40;;;;;;;3.43;83.20;100048.53;1739280;82;21304;-76
2021/01/08 12:29:02;;;;;;;21.20;13.60;;;;;;;3.45;83.08;100051.13;1739452;82;21332;-75
2021/01/08 12:32:10;;;;;;;20.15;12.13;;;;;;;3.47;82.91;100049.97;1739760;82;21296;-75
2021/01/08 12:35:18;;;;;;;19.90;14.35;;;;;;;3.46;82.74;100042.86;1740604;81;21212;-76
2021/01/08 12:38:24;;;;;;;23.45;13.15;;;;;;;3.48;82.70;100040.01;1740233;82;21852;-76
2021/01/08 12:41:29;;;;;;;19.90;13.30;;;;;;;3.50;82.67;100033.98;1739672;82;21304;-76
2021/01/08 12:44:36;;;;;;;19.02;12.95;;;;;;;3.54;82.57;100036.77;1739271;82;21792;-75
2021/01/08 12:47:41;;;;;;;19.73;12.90;;;;;;;3.55;82.56;100030.37;1739709;82;21296;-76
2021/01/08 12:50:47;;;;;;;21.68;13.22;;;;;;;3.57;82.29;100036.48;1739701;82;21744;-76
2021/01/08 12:53:53;;;;;;;20.37;13.20;;;;;;;3.55;81.96;100037.13;1739613;82;21197;-76
2021/01/08 12:56:58;;;;;;;21.20;13.98;;;;;;;3.55;81.81;100035.77;1739054;82;21356;-76
2021/01/08 13:00:04;;;;;;;21.62;12.63;;;;;;;3.52;81.89;100030.63;1718066;82;21366;-76
2021/01/08 13:03:03;;;;;;;21.02;12.90;;;;;;;3.49;81.94;100034.98;1738047;82;21655;-76
2021/01/08 13:06:09;;;;;;;18.95;12.53;;;;;;;3.46;81.98;100033.89;1740377;82;21320;-76
2021/01/08 13:09:16;;;;;;;19.32;12.10;;;;;;;3.47;82.09;100031.55;1739712;82;21875;-76
2021/01/08 13:12:24;;;;;;;20.27;13.80;;;;;;;3.47;82.17;100027.48;1738429;82;21315;-75
2021/01/08 13:15:31;;;;;;;23.40;14.68;;;;;;;3.45;82.12;100032.19;1739029;82;21335;-76
2021/01/08 13:18:38;;;;;;;22.95;15.85;;;;;;;3.44;82.35;100035.89;1739782;82;21240;-76
2021/01/08 13:21:45;;;;;;;24.10;15.75;;;;;;;3.43;82.41;100039.57;1739637;82;21339;-76
2021/01/08 13:24:51;;;;;;;24.87;14.55;;;;;;;3.44;82.22;100038.10;1739691;82;21355;-75
2021/01/08 13:27:57;;;;;;;18.40;13.43;;;;;;;3.38;82.05;100041.33;1738630;82;21894;-75
2021/01/08 13:31:04;;;;;;;20.23;13.53;;;;;;;3.31;81.90;100035.62;1738863;82;21338;-76
2021/01/08 13:34:11;;;;;;;19.73;13.98;;;;;;;3.24;81.86;100039.85;1739753;81;21359;-76
2021/01/08 13:37:17;;;;;;;21.68;13.28;;;;;;;3.18;82.04;100034.14;1739086;82;21320;-76
2021/01/08 13:40:22;;;;;;;20.08;14.47;;;;;;;3.16;82.25;100034.80;1739885;82;21315;-76
2021/01/08 13:43:28;;;;;;;22.62;14.28;;;;;;;3.12;82.45;100026.09;1738350;82;21308;-76
2021/01/08 13:46:34;;;;;;;21.45;14.65;;;;;;;3.07;82.84;100022.44;1738700;82;21882;-76
2021/01/08 13:49:39;;;;;;;28.27;14.47;;;;;;;3.06;83.15;100034.75;1738431;82;21307;-76
2021/01/08 13:52:46;;;;;;;23.20;14.23;;;;;;;3.06;83.42;100023.94;1738391;82;21316;-76
2021/01/08 13:55:53;;;;;;;22.42;14.80;;;;;;;3.03;83.58;100018.30;1739870;82;21308;-76
2021/01/08 13:58:58;;;;;;;22.62;15.43;;;;;;;3.03;83.77;100018.80;1739801;82;21312;-76
2021/01/08 14:02:04;;;;;;;20.82;14.13;;;;;;;3.03;83.91;100025.55;1737885;82;21811;-76
2021/01/08 14:05:11;;;;;;;21.73;14.78;;;;;;;3.01;84.05;100031.56;1739760;82;21777;-76
2021/01/08 14:08:17;;;;;;;20.23;14.18;;;;;;;3.00;84.36;100034.77;1738689;82;21311;-76
2021/01/08 14:11:38;;;;;;;22.13;15.63;;;;;;;3.01;84.47;100030.22;1739756;82;21351;-75
2021/01/08 14:14:44;;;;;;;24.50;15.65;;;;;;;2.99;84.56;100029.02;1739898;82;21831;-76
2021/01/08 14:17:50;;;;;;;25.08;15.45;;;;;;;2.97;84.59;100026.09;1739099;82;21351;-76
2021/01/08 14:20:56;;;;;;;24.72;15.40;;;;;;;2.98;84.62;100015.14;1739997;82;21355;-76
2021/01/08 14:24:05;;;;;;;24.05;14.80;;;;;;;2.99;84.60;100013.30;1740748;82;21277;-75
2021/01/08 14:27:09;;;;;;;22.93;15.13;;;;;;;2.97;84.58;100015.29;1740799;82;21200;-76
2021/01/08 14:30:14;;;;;;;22.95;15.95;;;;;;;2.93;84.63;100014.70;1740766;82;21146;-76
2021/01/08 14:33:19;;;;;;;24.07;16.42;;;;;;;2.90;84.80;100010.05;1740685;82;21784;-76
2021/01/08 14:36:32;;;;;;;26.45;17.15;;;;;;;2.89;84.89;100020.50;1738406;81;21220;-76
2021/01/08 14:39:39;;;;;;;29.48;16.32;;;;;;;2.86;84.94;100014.00;1740586;82;21213;-75